createdAt,value
2022-09-28T00:00:04.353Z,62.92
2022-09-28T00:01:04.343Z,52.98
2022-09-28T00:02:04.486Z,49.81
2022-09-28T00:03:04.925Z,54.15
2022-09-28T00:04:04.345Z,52.40
2022-09-28T00:05:04.341Z,47.63
2022-09-28T00:06:04.301Z,46.88
2022-09-28T00:07:04.315Z,52.96
2022-09-28T00:08:04.296Z,53.48
2022-09-28T00:09:04.293Z,53.78
2022-09-28T00:10:04.272Z,56.48
2022-09-28T00:11:04.269Z,57.26
2022-09-28T00:12:04.263Z,55.33
2022-09-28T00:13:04.251Z,56.02
2022-09-28T00:14:05.956Z,54.92
2022-09-28T00:15:04.246Z,47.20
2022-09-28T00:16:04.298Z,55.85
2022-09-28T00:17:04.220Z,55.40
2022-09-28T00:18:04.234Z,53.64
2022-09-28T00:19:04.191Z,56.43
2022-09-28T00:20:04.186Z,62.47
2022-09-28T00:21:04.185Z,55.63
2022-09-28T00:22:04.173Z,49.80
2022-09-28T00:23:04.173Z,47.99
2022-09-28T00:24:04.162Z,59.11
2022-09-28T00:25:04.161Z,54.62
2022-09-28T00:26:04.138Z,58.28
2022-09-28T00:27:04.145Z,56.64
2022-09-28T00:28:04.127Z,52.01
2022-09-28T00:29:04.126Z,53.03
2022-09-28T00:31:54.869Z,49.35
2022-09-28T00:32:54.797Z,42.93
2022-09-28T00:33:54.797Z,43.12
2022-09-28T00:34:54.780Z,43.14
2022-09-28T00:35:55.680Z,43.61
2022-09-28T00:36:54.779Z,57.14
2022-09-28T00:37:54.760Z,51.85
2022-09-28T00:38:54.757Z,53.57
2022-09-28T00:39:54.737Z,48.37
2022-09-28T00:40:54.818Z,55.01
2022-09-28T00:41:56.669Z,57.74
2022-09-28T00:42:54.727Z,48.04
2022-09-28T00:43:54.705Z,46.34
2022-09-28T00:44:54.701Z,48.28
2022-09-28T00:45:54.862Z,45.35
2022-09-28T00:46:54.684Z,50.48
2022-09-28T00:47:54.686Z,47.74
2022-09-28T00:48:54.672Z,54.65
2022-09-28T00:49:55.665Z,55.03
2022-09-28T00:50:54.652Z,52.24
2022-09-28T00:51:54.638Z,57.71
2022-09-28T00:52:55.667Z,59.28
2022-09-28T00:53:54.624Z,44.09
2022-09-28T00:54:54.627Z,44.41
2022-09-28T00:55:54.611Z,53.26
2022-09-28T00:56:54.604Z,51.49
2022-09-28T00:57:54.595Z,51.50
2022-09-28T00:58:55.612Z,51.89
2022-09-28T00:59:54.581Z,45.58
2022-09-28T01:00:54.607Z,62.56
2022-09-28T01:01:54.586Z,56.77
2022-09-28T01:02:54.569Z,54.45
2022-09-28T01:03:54.548Z,52.68
2022-09-28T01:04:54.546Z,48.16
2022-09-28T01:05:54.540Z,50.77
2022-09-28T01:06:54.521Z,56.68
2022-09-28T01:07:55.161Z,48.36
2022-09-28T01:08:54.506Z,45.25
2022-09-28T01:09:54.502Z,49.47
2022-09-28T01:10:54.492Z,49.88
2022-09-28T01:11:54.479Z,57.93
2022-09-28T01:12:54.476Z,49.15
2022-09-28T01:13:54.463Z,42.99
2022-09-28T01:14:54.465Z,59.52
2022-09-28T01:15:54.483Z,58.42
2022-09-28T01:16:54.438Z,49.66
2022-09-28T01:17:56.158Z,48.44
2022-09-28T01:18:54.424Z,58.51
2022-09-28T01:19:54.423Z,63.04
2022-09-28T01:20:54.413Z,51.98
2022-09-28T01:21:54.404Z,58.00
2022-09-28T01:22:54.392Z,56.95
2022-09-28T01:23:54.385Z,52.22
2022-09-28T01:24:54.392Z,52.00
2022-09-28T01:25:54.373Z,60.67
2022-09-28T01:26:54.362Z,50.86
2022-09-28T01:27:54.353Z,56.69
2022-09-28T01:28:55.093Z,55.16
2022-09-28T01:29:55.091Z,49.05
2022-09-28T01:30:54.337Z,53.67
2022-09-28T01:31:54.379Z,46.65
2022-09-28T01:32:54.315Z,46.12
2022-09-28T01:33:54.305Z,47.04
2022-09-28T01:34:54.305Z,45.93
2022-09-28T01:35:54.291Z,55.01
2022-09-28T01:36:54.284Z,58.52
2022-09-28T01:37:54.269Z,60.82
2022-09-28T01:38:54.267Z,58.86
2022-09-28T01:39:54.259Z,49.41
2022-09-28T01:40:54.306Z,49.27
2022-09-28T01:41:54.240Z,48.98
2022-09-28T01:42:54.232Z,57.52
2022-09-28T01:43:54.221Z,56.74
2022-09-28T01:44:54.227Z,49.17
2022-09-28T01:45:54.270Z,49.55
2022-09-28T01:46:54.214Z,54.16
2022-09-28T01:47:54.189Z,52.18
2022-09-28T01:48:54.184Z,54.72
2022-09-28T01:49:54.176Z,52.09
2022-09-28T01:50:55.093Z,53.89
2022-09-28T01:51:54.166Z,52.50
2022-09-28T01:52:54.155Z,61.05
2022-09-28T01:53:54.142Z,54.74
2022-09-28T01:54:54.134Z,49.24
2022-09-28T01:55:54.679Z,58.33
2022-09-28T01:56:54.116Z,59.59
2022-09-28T01:57:54.116Z,56.86
2022-09-28T01:58:54.102Z,53.45
2022-09-28T01:59:54.087Z,51.03
2022-09-28T02:00:54.168Z,55.40
2022-09-28T02:01:54.206Z,49.95
2022-09-28T02:02:54.065Z,52.36
2022-09-28T02:03:54.071Z,50.94
2022-09-28T02:04:54.051Z,55.00
2022-09-28T02:05:54.047Z,54.12
2022-09-28T02:06:54.047Z,58.28
2022-09-28T02:07:54.032Z,52.77
2022-09-28T02:08:54.019Z,53.23
2022-09-28T02:09:55.013Z,52.78
2022-09-28T02:10:54.002Z,59.11
2022-09-28T02:11:54.000Z,58.19
2022-09-28T02:12:55.611Z,54.85
2022-09-28T02:13:53.982Z,52.56
2022-09-28T02:14:53.974Z,53.16
2022-09-28T02:15:54.023Z,59.55
2022-09-28T02:16:53.957Z,58.39
2022-09-28T02:17:53.953Z,54.33
2022-09-28T02:18:53.938Z,57.08
2022-09-28T02:19:53.929Z,55.31
2022-09-28T02:20:53.921Z,57.76
2022-09-28T02:21:53.914Z,61.47
2022-09-28T02:22:55.688Z,57.25
2022-09-28T02:23:53.906Z,58.53
2022-09-28T02:24:53.888Z,57.84
2022-09-28T02:25:53.882Z,53.76
2022-09-28T02:26:55.595Z,62.17
2022-09-28T02:27:53.862Z,58.84
2022-09-28T02:28:54.678Z,62.91
2022-09-28T02:29:54.682Z,58.80
2022-09-28T02:30:53.844Z,60.00
2022-09-28T02:31:53.924Z,59.39
2022-09-28T02:32:53.832Z,55.00
2022-09-28T02:33:53.823Z,51.12
2022-09-28T02:34:53.811Z,64.65
2022-09-28T02:35:53.800Z,52.19
2022-09-28T02:36:53.805Z,57.69
2022-09-28T02:37:53.782Z,55.66
2022-09-28T02:38:53.781Z,57.85
2022-09-28T02:39:53.802Z,57.28
2022-09-28T02:40:53.825Z,61.11
2022-09-28T02:41:53.762Z,59.64
2022-09-28T02:42:54.681Z,57.97
2022-09-28T02:43:53.736Z,56.09
2022-09-28T02:44:53.727Z,50.92
2022-09-28T02:45:53.783Z,60.54
2022-09-28T02:46:53.709Z,61.31
2022-09-28T02:47:53.701Z,60.81
2022-09-28T02:49:10.577Z,63.70
2022-09-28T02:49:55.686Z,59.13
2022-09-28T02:50:53.675Z,53.26
2022-09-28T02:51:54.606Z,54.27
2022-09-28T02:52:53.669Z,60.70
2022-09-28T02:53:53.660Z,59.79
2022-09-28T02:54:53.645Z,59.03
2022-09-28T02:55:53.632Z,61.94
2022-09-28T02:56:56.203Z,58.53
2022-09-28T02:57:53.623Z,56.38
2022-09-28T02:58:53.610Z,56.82
2022-09-28T02:59:53.613Z,51.53
2022-09-28T03:00:53.651Z,54.48
2022-09-28T03:01:53.616Z,61.25
2022-09-28T03:02:53.578Z,59.52
2022-09-28T03:03:53.574Z,57.02
2022-09-28T03:04:53.570Z,58.44
2022-09-28T03:05:55.187Z,57.26
2022-09-28T03:06:53.551Z,56.95
2022-09-28T03:07:53.544Z,57.23
2022-09-28T03:08:53.530Z,58.43
2022-09-28T03:09:53.533Z,58.80
2022-09-28T03:10:53.525Z,63.23
2022-09-28T03:11:53.529Z,63.88
2022-09-28T03:12:53.500Z,64.41
2022-09-28T03:13:53.491Z,59.91
2022-09-28T03:14:53.484Z,60.57
2022-09-28T03:15:53.621Z,62.02
2022-09-28T03:16:53.473Z,65.06
2022-09-28T03:17:53.461Z,65.84
2022-09-28T03:18:53.455Z,56.39
2022-09-28T03:19:53.446Z,65.58
2022-09-28T03:20:53.442Z,60.16
2022-09-28T03:21:53.434Z,58.56
2022-09-28T03:23:19.759Z,64.46
2022-09-28T03:23:55.417Z,59.71
2022-09-28T03:24:53.413Z,63.83
2022-09-28T03:25:53.409Z,65.45
2022-09-28T03:26:54.116Z,64.52
2022-09-28T03:27:53.384Z,64.21
2022-09-28T03:28:53.373Z,66.75
2022-09-28T03:29:53.364Z,61.83
2022-09-28T03:30:53.355Z,63.91
2022-09-28T03:31:53.419Z,64.87
2022-09-28T03:32:53.339Z,63.16
2022-09-28T03:33:53.334Z,67.30
2022-09-28T03:34:53.323Z,64.87
2022-09-28T03:35:53.322Z,65.17
2022-09-28T03:36:53.318Z,62.39
2022-09-28T03:37:53.306Z,66.13
2022-09-28T03:38:53.286Z,68.76
2022-09-28T03:39:53.286Z,62.02
2022-09-28T03:40:53.304Z,66.72
2022-09-28T03:41:54.213Z,63.66
2022-09-28T03:42:53.257Z,62.48
2022-09-28T03:43:53.250Z,65.18
2022-09-28T03:44:53.242Z,64.90
2022-09-28T03:45:53.273Z,63.51
2022-09-28T03:46:53.233Z,60.89
2022-09-28T03:47:53.230Z,61.41
2022-09-28T03:48:53.208Z,65.02
2022-09-28T03:49:53.207Z,61.41
2022-09-28T03:50:53.191Z,63.58
2022-09-28T03:51:53.186Z,69.20
2022-09-28T03:52:53.189Z,64.63
2022-09-28T03:53:53.168Z,66.76
2022-09-28T03:54:53.174Z,65.17
2022-09-28T03:55:53.156Z,66.49
2022-09-28T03:56:53.134Z,64.48
2022-09-28T03:57:54.134Z,65.18
2022-09-28T03:58:53.128Z,66.66
2022-09-28T03:59:53.625Z,65.50
2022-09-28T04:00:53.198Z,65.05
2022-09-28T04:01:54.887Z,65.92
2022-09-28T04:02:53.086Z,62.80
2022-09-28T04:03:54.096Z,64.62
2022-09-28T04:04:53.093Z,69.55
2022-09-28T04:05:54.085Z,65.06
2022-09-28T04:06:53.067Z,63.34
2022-09-28T04:07:53.054Z,65.07
2022-09-28T04:08:53.057Z,64.86
2022-09-28T04:09:53.044Z,62.09
2022-09-28T04:10:53.029Z,63.96
2022-09-28T04:12:03.960Z,65.70
2022-09-28T04:12:55.013Z,68.87
2022-09-28T04:13:53.009Z,66.47
2022-09-28T04:14:53.005Z,62.07
2022-09-28T04:15:52.992Z,63.04
2022-09-28T04:16:53.005Z,64.90
2022-09-28T04:17:52.981Z,61.72
2022-09-28T04:18:52.968Z,66.77
2022-09-28T04:19:52.981Z,66.71
2022-09-28T04:20:52.958Z,65.58
2022-09-28T04:21:52.949Z,66.52
2022-09-28T04:22:52.938Z,64.91
2022-09-28T04:23:52.934Z,68.65
2022-09-28T04:24:52.934Z,66.79
2022-09-28T04:25:52.935Z,66.69
2022-09-28T04:26:52.909Z,67.66
2022-09-28T04:27:52.919Z,68.86
2022-09-28T04:28:52.890Z,68.43
2022-09-28T04:29:52.879Z,64.67
2022-09-28T04:30:52.885Z,67.96
2022-09-28T04:31:52.947Z,65.56
2022-09-28T04:32:52.858Z,68.07
2022-09-28T04:33:52.848Z,68.78
2022-09-28T04:34:52.840Z,65.34
2022-09-28T04:35:52.837Z,69.70
2022-09-28T04:36:52.839Z,69.62
2022-09-28T04:37:52.814Z,67.43
2022-09-28T04:38:54.701Z,68.16
2022-09-28T04:39:52.810Z,66.88
2022-09-28T04:40:56.773Z,66.59
2022-09-28T04:41:52.786Z,65.84
2022-09-28T04:42:52.775Z,65.80
2022-09-28T04:43:52.770Z,66.52
2022-09-28T04:44:52.767Z,65.88
2022-09-28T04:45:52.782Z,66.71
2022-09-28T04:46:53.635Z,65.59
2022-09-28T04:47:52.739Z,65.64
2022-09-28T04:48:52.730Z,68.97
2022-09-28T04:49:52.730Z,67.96
2022-09-28T04:52:59.597Z,66.26
2022-09-28T04:54:01.496Z,66.24
2022-09-28T04:55:01.699Z,70.19
2022-09-28T04:56:01.511Z,67.68
2022-09-28T04:57:00.677Z,69.40
2022-09-28T04:58:00.685Z,67.64
2022-09-28T04:59:02.431Z,68.62
2022-09-28T05:00:00.696Z,68.25
2022-09-28T05:01:00.728Z,71.26
2022-09-28T05:02:00.681Z,69.97
2022-09-28T05:03:00.635Z,70.43
2022-09-28T05:04:00.627Z,70.86
2022-09-28T05:05:00.637Z,70.96
2022-09-28T05:06:00.607Z,72.17
2022-09-28T05:07:02.514Z,70.35
2022-09-28T05:08:00.586Z,69.49
2022-09-28T05:09:00.568Z,69.63
2022-09-28T05:10:00.568Z,67.40
2022-09-28T05:11:00.567Z,68.18
2022-09-28T05:12:00.557Z,69.95
2022-09-28T05:13:00.549Z,69.43
2022-09-28T05:14:01.382Z,70.79
2022-09-28T05:15:00.521Z,71.43
2022-09-28T05:16:05.166Z,71.90
2022-09-28T05:17:01.671Z,71.63
2022-09-28T05:18:00.504Z,71.48
2022-09-28T05:19:00.503Z,72.42
2022-09-28T05:20:00.493Z,71.16
2022-09-28T05:21:00.522Z,72.43
2022-09-28T05:22:00.482Z,68.89
2022-09-28T05:23:00.477Z,71.05
2022-09-28T05:24:01.011Z,67.15
2022-09-28T05:25:05.024Z,70.77
2022-09-28T05:26:23.461Z,70.17
2022-09-28T05:27:00.446Z,71.48
2022-09-28T05:28:00.453Z,70.17
2022-09-28T05:29:00.419Z,72.69
2022-09-28T05:30:00.427Z,72.55
2022-09-28T05:31:00.436Z,73.86
2022-09-28T05:32:00.452Z,71.91
2022-09-28T05:33:00.392Z,73.56
2022-09-28T05:34:00.381Z,72.01
2022-09-28T05:35:02.936Z,72.13
2022-09-28T05:36:01.976Z,71.38
2022-09-28T05:38:49.077Z,72.14
2022-09-28T05:39:47.448Z,72.91
2022-09-28T05:40:47.522Z,72.25
2022-09-28T05:41:48.081Z,72.55
2022-09-28T05:42:47.451Z,71.22
2022-09-28T05:43:48.513Z,70.30
2022-09-28T05:44:48.569Z,71.36
2022-09-28T05:45:52.830Z,71.31
2022-09-28T05:46:50.506Z,71.07
2022-09-28T05:47:48.493Z,69.70
2022-09-28T05:48:48.478Z,71.24
2022-09-28T05:49:48.498Z,68.72
2022-09-28T05:50:48.458Z,70.51
2022-09-28T05:51:48.697Z,70.60
2022-09-28T05:52:51.176Z,69.52
2022-09-28T05:53:49.432Z,71.11
2022-09-28T05:54:48.432Z,71.06
2022-09-28T05:55:48.440Z,72.20
2022-09-28T05:56:48.418Z,72.97
2022-09-28T05:57:48.413Z,71.74
2022-09-28T05:58:48.412Z,70.10
2022-09-28T05:59:48.400Z,69.36
2022-09-28T06:00:48.426Z,69.53
2022-09-28T06:01:48.372Z,70.61
2022-09-28T06:02:48.415Z,70.88
2022-09-28T06:03:48.364Z,71.09
2022-09-28T06:04:49.091Z,69.38
2022-09-28T06:05:48.343Z,67.89
2022-09-28T06:06:48.369Z,72.00
2022-09-28T06:07:48.328Z,69.50
2022-09-28T06:08:48.319Z,67.78
2022-09-28T06:09:48.320Z,68.23
2022-09-28T06:10:48.311Z,72.69
2022-09-28T06:11:48.316Z,69.09
2022-09-28T06:12:48.292Z,69.53
2022-09-28T06:13:48.304Z,69.12
2022-09-28T06:14:48.275Z,69.13
2022-09-28T06:15:48.274Z,70.79
2022-09-28T06:16:48.307Z,71.45
2022-09-28T06:17:48.268Z,68.67
2022-09-28T06:18:48.237Z,70.68
2022-09-28T06:19:48.262Z,73.75
2022-09-28T06:20:48.259Z,71.55
2022-09-28T06:21:48.219Z,71.71
2022-09-28T06:22:48.204Z,68.82
2022-09-28T06:23:49.373Z,70.10
2022-09-28T06:24:50.106Z,76.42
2022-09-28T06:25:48.198Z,68.13
2022-09-28T06:26:48.197Z,70.13
2022-09-28T06:27:48.184Z,69.55
2022-09-28T06:28:48.164Z,68.18
2022-09-28T06:29:48.154Z,70.22
2022-09-28T06:30:48.296Z,68.23
2022-09-28T06:31:48.695Z,65.90
2022-09-28T06:32:48.157Z,68.47
2022-09-28T06:33:48.121Z,72.10
2022-09-28T06:34:50.695Z,67.83
2022-09-28T06:35:48.108Z,71.01
2022-09-28T06:36:48.095Z,70.56
2022-09-28T06:37:48.114Z,69.62
2022-09-28T06:38:48.083Z,70.15
2022-09-28T06:39:48.083Z,70.34
2022-09-28T06:40:48.164Z,69.47
2022-09-28T06:41:48.063Z,68.15
2022-09-28T06:42:48.055Z,68.92
2022-09-28T06:43:48.242Z,70.88
2022-09-28T06:44:48.036Z,68.64
2022-09-28T06:45:48.045Z,67.91
2022-09-28T06:46:48.024Z,69.63
2022-09-28T06:47:48.027Z,67.39
2022-09-28T06:48:49.016Z,69.08
2022-09-28T06:49:48.017Z,70.30
2022-09-28T06:50:47.990Z,70.30
2022-09-28T06:51:47.977Z,71.50
2022-09-28T06:52:49.673Z,68.23
2022-09-28T06:53:47.965Z,70.39
2022-09-28T06:54:47.978Z,70.28
2022-09-28T06:55:47.949Z,70.80
2022-09-28T06:56:47.945Z,71.89
2022-09-28T06:57:47.968Z,69.43
2022-09-28T06:58:47.923Z,71.31
2022-09-28T06:59:47.935Z,70.99
2022-09-28T07:00:47.961Z,70.47
2022-09-28T07:01:47.901Z,68.93
2022-09-28T07:02:48.070Z,67.05
2022-09-28T07:03:49.687Z,70.48
2022-09-28T07:04:47.883Z,68.76
2022-09-28T07:05:47.876Z,67.47
2022-09-28T07:06:47.890Z,67.93
2022-09-28T07:07:49.616Z,65.99
2022-09-28T07:08:53.690Z,69.02
2022-09-28T07:09:52.341Z,67.96
2022-09-28T07:10:49.838Z,70.43
2022-09-28T07:11:47.825Z,66.90
2022-09-28T07:12:47.821Z,65.86
2022-09-28T07:13:51.231Z,65.90
2022-09-28T07:14:49.313Z,68.71
2022-09-28T07:15:47.826Z,68.27
2022-09-28T07:17:11.728Z,67.54
2022-09-28T07:18:00.425Z,69.30
2022-09-28T07:18:49.793Z,68.22
2022-09-28T07:19:47.763Z,68.24
2022-09-28T07:20:54.271Z,70.41
2022-09-28T07:22:00.224Z,70.48
2022-09-28T07:22:49.739Z,68.41
2022-09-28T07:23:53.506Z,66.81
2022-09-28T07:24:51.706Z,68.50
2022-09-28T07:25:49.676Z,66.11
2022-09-28T07:26:47.714Z,64.89
2022-09-28T07:27:47.694Z,67.61
2022-09-28T07:28:49.185Z,67.30
2022-09-28T07:29:48.612Z,67.60
2022-09-28T07:30:47.732Z,67.07
2022-09-28T07:31:47.675Z,65.40
2022-09-28T07:32:47.664Z,68.93
2022-09-28T07:33:47.660Z,66.94
2022-09-28T07:34:47.650Z,67.66
2022-09-28T07:35:47.642Z,68.72
2022-09-28T07:36:47.660Z,68.91
2022-09-28T07:37:47.624Z,69.22
2022-09-28T07:38:47.608Z,69.87
2022-09-28T07:39:47.613Z,69.82
2022-09-28T07:40:48.570Z,69.37
2022-09-28T07:41:47.583Z,69.73
2022-09-28T07:42:47.566Z,67.44
2022-09-28T07:43:47.572Z,66.46
2022-09-28T07:44:47.556Z,65.70
2022-09-28T07:45:47.806Z,67.22
2022-09-28T07:46:47.568Z,65.85
2022-09-28T07:47:47.540Z,68.13
2022-09-28T07:48:47.525Z,66.80
2022-09-28T07:49:47.523Z,67.03
2022-09-28T07:50:47.516Z,65.59
2022-09-28T07:51:47.530Z,66.64
2022-09-28T07:52:47.493Z,68.68
2022-09-28T07:53:47.484Z,67.43
2022-09-28T07:54:48.121Z,67.33
2022-09-28T07:55:47.524Z,67.83
2022-09-28T07:56:47.487Z,65.72
2022-09-28T07:57:48.473Z,68.08
2022-09-28T07:58:47.463Z,68.31
2022-09-28T07:59:47.436Z,67.49
2022-09-28T08:00:47.665Z,68.90
2022-09-28T08:01:47.528Z,65.67
2022-09-28T08:02:47.479Z,68.02
2022-09-28T08:03:47.409Z,70.13
2022-09-28T08:04:47.437Z,67.37
2022-09-28T08:05:47.541Z,66.50
2022-09-28T08:06:47.416Z,63.97
2022-09-28T08:07:47.419Z,66.40
2022-09-28T08:08:47.378Z,66.64
2022-09-28T08:09:47.465Z,68.95
2022-09-28T08:10:47.722Z,68.76
2022-09-28T08:11:47.366Z,66.50
2022-09-28T08:12:47.349Z,73.32
2022-09-28T08:13:47.347Z,71.96
2022-09-28T08:14:47.331Z,65.22
2022-09-28T08:15:48.125Z,64.16
2022-09-28T08:16:49.556Z,67.08
2022-09-28T08:17:48.127Z,76.24
2022-09-28T08:18:49.204Z,76.70
2022-09-28T08:19:48.641Z,70.11
2022-09-28T08:20:51.313Z,69.04
2022-09-28T08:21:49.269Z,75.50
2022-09-28T08:22:48.214Z,75.21
2022-09-28T08:23:47.558Z,69.11
2022-09-28T08:24:48.135Z,70.90
2022-09-28T08:25:48.257Z,73.23
2022-09-28T08:26:47.234Z,67.55
2022-09-28T08:27:47.247Z,73.23
2022-09-28T08:28:48.129Z,71.70
2022-09-28T08:29:47.226Z,68.85
2022-09-28T08:30:47.315Z,67.32
2022-09-28T08:31:51.132Z,66.30
2022-09-28T08:32:47.284Z,70.65
2022-09-28T08:33:47.173Z,69.78
2022-09-28T08:34:47.180Z,69.15
2022-09-28T08:35:47.187Z,68.93
2022-09-28T08:36:47.156Z,68.77
2022-09-28T08:37:51.370Z,71.38
2022-09-28T08:38:49.130Z,70.31
2022-09-28T08:39:48.626Z,64.72
2022-09-28T08:40:47.214Z,68.68
2022-09-28T08:43:54.243Z,63.96
2022-09-28T08:44:53.385Z,67.51
2022-09-28T08:45:54.497Z,65.33
2022-09-28T08:46:54.462Z,64.25
2022-09-28T08:47:54.457Z,62.62
2022-09-28T08:49:13.404Z,66.38
2022-09-28T08:49:56.433Z,65.50
2022-09-28T08:50:55.445Z,65.96
2022-09-28T08:51:54.418Z,65.30
2022-09-28T08:52:55.348Z,66.87
2022-09-28T08:53:54.406Z,64.82
2022-09-28T08:54:56.330Z,68.40
2022-09-28T08:55:54.393Z,65.68
2022-09-28T08:56:54.376Z,64.98
2022-09-28T08:57:54.370Z,67.20
2022-09-28T08:58:56.325Z,65.96
2022-09-28T08:59:54.347Z,66.74
2022-09-28T09:00:54.422Z,66.53
2022-09-28T09:04:00.659Z,66.11
2022-09-28T09:05:00.664Z,65.70
2022-09-28T09:06:01.738Z,65.82
2022-09-28T09:07:01.750Z,64.50
2022-09-28T09:08:01.727Z,65.75
2022-09-28T09:09:01.720Z,64.03
2022-09-28T09:10:01.723Z,64.67
2022-09-28T09:11:01.719Z,66.64
2022-09-28T09:12:01.694Z,63.88
2022-09-28T09:13:01.692Z,65.98
2022-09-28T09:14:01.697Z,62.93
2022-09-28T09:15:02.567Z,65.12
2022-09-28T09:16:01.681Z,65.39
2022-09-28T09:17:01.712Z,65.98
2022-09-28T09:18:01.643Z,66.48
2022-09-28T09:19:01.662Z,65.84
2022-09-28T09:20:01.624Z,64.03
2022-09-28T09:21:01.627Z,67.01
2022-09-28T09:22:01.638Z,66.58
2022-09-28T09:23:01.624Z,65.97
2022-09-28T09:24:02.484Z,64.30
2022-09-28T09:25:01.606Z,64.88
2022-09-28T09:26:02.482Z,65.96
2022-09-28T09:27:01.574Z,64.32
2022-09-28T09:28:01.574Z,65.71
2022-09-28T09:29:01.607Z,65.98
2022-09-28T09:30:01.543Z,66.57
2022-09-28T09:31:02.792Z,64.82
2022-09-28T09:32:01.527Z,65.16
2022-09-28T09:33:01.513Z,64.49
2022-09-28T09:34:01.503Z,63.86
2022-09-28T09:35:01.497Z,65.90
2022-09-28T09:36:01.500Z,65.88
2022-09-28T09:37:01.504Z,66.19
2022-09-28T09:38:01.474Z,64.34
2022-09-28T09:39:01.492Z,62.94
2022-09-28T09:40:01.460Z,64.62
2022-09-28T09:41:03.184Z,66.93
2022-09-28T09:42:02.163Z,68.24
2022-09-28T09:43:01.444Z,64.81
2022-09-28T09:44:01.446Z,66.86
2022-09-28T09:45:03.072Z,68.59
2022-09-28T09:46:01.478Z,71.11
2022-09-28T09:47:01.434Z,68.41
2022-09-28T09:48:01.988Z,66.03
2022-09-28T09:49:01.438Z,68.26
2022-09-28T09:50:06.781Z,68.96
2022-09-28T09:51:08.115Z,65.12
2022-09-28T09:52:01.455Z,69.03
2022-09-28T09:53:01.368Z,67.53
2022-09-28T09:54:03.497Z,65.97
2022-09-28T09:55:01.373Z,68.85
2022-09-28T09:56:01.342Z,65.91
2022-09-28T09:57:01.367Z,67.46
2022-09-28T09:58:01.338Z,66.82
2022-09-28T09:59:03.119Z,68.55
2022-09-28T10:00:06.282Z,67.65
2022-09-28T10:01:01.380Z,67.89
2022-09-28T10:02:01.339Z,65.80
2022-09-28T10:03:01.992Z,68.69
2022-09-28T10:04:01.279Z,67.84
2022-09-28T10:05:02.011Z,69.28
2022-09-28T10:06:02.266Z,66.58
2022-09-28T10:07:01.252Z,66.95
2022-09-28T10:08:01.256Z,69.51
2022-09-28T10:09:01.234Z,68.90
2022-09-28T10:10:01.230Z,68.02
2022-09-28T10:11:01.227Z,69.84
2022-09-28T10:12:01.217Z,68.41
2022-09-28T10:13:01.204Z,69.39
2022-09-28T10:14:01.199Z,70.84
2022-09-28T10:15:01.201Z,68.61
2022-09-28T10:16:01.172Z,66.65
2022-09-28T10:17:01.220Z,70.30
2022-09-28T10:18:01.172Z,66.39
2022-09-28T10:19:01.163Z,68.18
2022-09-28T10:20:01.148Z,72.48
2022-09-28T10:21:01.143Z,70.26
2022-09-28T10:22:02.134Z,68.72
2022-09-28T10:23:02.998Z,71.18
2022-09-28T10:24:01.133Z,67.94
2022-09-28T10:25:01.121Z,67.90
2022-09-28T10:26:03.003Z,70.29
2022-09-28T10:27:01.105Z,70.41
2022-09-28T10:28:03.005Z,68.08
2022-09-28T10:29:01.220Z,68.40
2022-09-28T10:30:01.117Z,68.27
2022-09-28T10:31:01.183Z,69.37
2022-09-28T10:32:01.084Z,69.00
2022-09-28T10:33:01.061Z,68.95
2022-09-28T10:34:01.031Z,68.93
2022-09-28T10:35:02.581Z,69.70
2022-09-28T10:36:01.022Z,69.42
2022-09-28T10:37:01.029Z,68.17
2022-09-28T10:38:01.006Z,69.75
2022-09-28T10:39:00.993Z,67.76
2022-09-28T10:40:00.997Z,68.78
2022-09-28T10:41:01.094Z,68.17
2022-09-28T10:42:00.991Z,67.62
2022-09-28T10:43:00.962Z,68.88
2022-09-28T10:44:00.948Z,65.68
2022-09-28T10:45:00.976Z,68.54
2022-09-28T10:46:01.007Z,69.42
2022-09-28T10:47:00.935Z,67.74
2022-09-28T10:48:00.930Z,70.44
2022-09-28T10:49:00.911Z,68.93
2022-09-28T10:50:00.912Z,69.03
2022-09-28T10:51:00.906Z,66.07
2022-09-28T10:52:00.913Z,68.38
2022-09-28T10:53:00.890Z,67.55
2022-09-28T10:54:00.902Z,67.07
2022-09-28T10:55:06.519Z,70.67
2022-09-28T10:56:00.869Z,69.99
2022-09-28T10:57:00.871Z,69.58
2022-09-28T11:00:07.929Z,69.37
2022-09-28T11:01:07.991Z,68.32
2022-09-28T11:02:07.935Z,67.94
2022-09-28T11:03:09.562Z,70.35
2022-09-28T11:04:08.981Z,68.40
2022-09-28T11:05:08.971Z,69.61
2022-09-28T11:06:09.652Z,68.00
2022-09-28T11:07:08.954Z,67.60
2022-09-28T11:08:08.946Z,67.13
2022-09-28T11:09:08.937Z,67.57
2022-09-28T11:10:08.939Z,66.15
2022-09-28T11:11:11.067Z,67.10
2022-09-28T11:12:08.928Z,68.31
2022-09-28T11:13:08.921Z,68.04
2022-09-28T11:14:09.584Z,73.59
2022-09-28T11:15:08.897Z,68.34
2022-09-28T11:16:09.659Z,70.44
2022-09-28T11:17:08.916Z,70.01
2022-09-28T11:18:11.609Z,69.24
2022-09-28T11:19:09.568Z,69.58
2022-09-28T11:20:08.868Z,69.72
2022-09-28T11:21:13.003Z,67.86
2022-09-28T11:22:12.332Z,69.07
2022-09-28T11:23:09.848Z,68.37
2022-09-28T11:24:08.837Z,65.31
2022-09-28T11:25:09.661Z,65.07
2022-09-28T11:26:08.833Z,65.13
2022-09-28T11:27:08.798Z,65.21
2022-09-28T11:28:08.800Z,63.57
2022-09-28T11:29:08.792Z,63.69
2022-09-28T11:30:08.778Z,64.02
2022-09-28T11:31:08.818Z,65.38
2022-09-28T11:32:12.435Z,65.04
2022-09-28T11:33:09.785Z,66.28
2022-09-28T11:34:08.744Z,63.98
2022-09-28T11:35:08.733Z,65.98
2022-09-28T11:36:09.580Z,68.07
2022-09-28T11:37:08.720Z,64.24
2022-09-28T11:38:09.677Z,66.22
2022-09-28T11:39:11.181Z,66.62
2022-09-28T11:40:08.692Z,62.55
2022-09-28T11:41:08.697Z,64.23
2022-09-28T11:42:11.884Z,66.12
2022-09-28T11:43:10.710Z,66.94
2022-09-28T11:44:11.284Z,66.81
2022-09-28T11:45:08.654Z,65.70
2022-09-28T11:46:09.698Z,64.52
2022-09-28T11:47:08.684Z,63.05
2022-09-28T11:48:08.629Z,65.22
2022-09-28T11:49:08.625Z,65.16
2022-09-28T11:50:08.612Z,65.14
2022-09-28T11:51:17.179Z,64.15
2022-09-28T11:52:16.040Z,65.06
2022-09-28T11:53:13.094Z,63.47
2022-09-28T11:54:18.700Z,66.53
2022-09-28T11:55:09.288Z,67.62
2022-09-28T11:56:09.150Z,68.70
2022-09-28T11:57:31.595Z,65.92
2022-09-28T12:00:16.493Z,66.72
2022-09-28T12:01:18.858Z,66.30
2022-09-28T12:02:17.563Z,68.02
2022-09-28T12:03:16.675Z,64.69
2022-09-28T12:04:16.550Z,64.72
2022-09-28T12:05:20.664Z,65.71
2022-09-28T12:06:17.442Z,67.28
2022-09-28T12:07:18.347Z,64.66
2022-09-28T12:08:16.420Z,66.42
2022-09-28T12:09:18.438Z,67.71
2022-09-28T12:10:17.217Z,64.55
2022-09-28T12:11:16.394Z,65.64
2022-09-28T12:12:24.289Z,66.20
2022-09-28T12:13:19.481Z,65.24
2022-09-28T12:14:18.335Z,65.38
2022-09-28T12:17:41.817Z,65.01
2022-09-28T12:18:39.825Z,68.94
2022-09-28T12:19:43.677Z,66.28
2022-09-28T12:20:42.752Z,66.21
2022-09-28T12:21:39.807Z,69.50
2022-09-28T12:22:40.792Z,68.36
2022-09-28T12:23:39.780Z,67.59
2022-09-28T12:24:39.763Z,65.27
2022-09-28T12:25:39.763Z,65.79
2022-09-28T12:26:39.770Z,66.58
2022-09-28T12:27:39.739Z,69.50
2022-09-28T12:30:46.070Z,65.09
2022-09-28T12:31:47.111Z,65.27
2022-09-28T12:32:47.081Z,64.60
2022-09-28T12:33:47.078Z,64.81
2022-09-28T12:34:47.082Z,65.92
2022-09-28T12:35:47.062Z,66.88
2022-09-28T12:36:48.874Z,68.87
2022-09-28T12:37:47.048Z,65.98
2022-09-28T12:38:54.078Z,66.32
2022-09-28T12:39:57.428Z,67.85
2022-09-28T12:40:49.119Z,66.57
2022-09-28T12:41:48.871Z,66.16
2022-09-28T12:42:47.025Z,64.52
2022-09-28T12:43:47.198Z,67.88
2022-09-28T12:44:46.980Z,67.78
2022-09-28T12:46:10.408Z,66.37
2022-09-28T12:46:49.115Z,67.19
2022-09-28T12:47:48.879Z,66.55
2022-09-28T12:48:57.209Z,68.47
2022-09-28T12:50:56.778Z,66.61
2022-09-28T12:51:48.944Z,69.11
2022-09-28T12:52:47.501Z,68.51
2022-09-28T12:53:47.887Z,70.04
2022-09-28T12:54:48.487Z,66.69
2022-09-28T12:55:46.917Z,67.83
2022-09-28T12:56:46.893Z,69.01
2022-09-28T12:57:46.889Z,70.77
2022-09-28T12:58:46.893Z,70.80
2022-09-28T12:59:47.405Z,68.82
2022-09-28T13:00:47.389Z,70.88
2022-09-28T13:01:49.415Z,69.30
2022-09-28T13:02:46.908Z,73.57
2022-09-28T13:03:46.836Z,70.69
2022-09-28T13:04:48.386Z,70.08
2022-09-28T13:05:46.842Z,66.38
2022-09-28T13:06:47.802Z,67.97
2022-09-28T13:07:48.381Z,69.51
2022-09-28T13:08:46.802Z,67.82
2022-09-28T13:09:46.786Z,69.41
2022-09-28T13:10:46.827Z,70.49
2022-09-28T13:11:46.808Z,68.46